sensor_id;sensor_type;location;lat;lon;timestamp;temperature;humidity
50816;DHT22;39717;47.324;8.788;2022-09-11T00:01:05;14.00;99.90
50816;DHT22;39717;47.324;8.788;2022-09-11T00:03:32;14.00;99.90
50816;DHT22;39717;47.324;8.788;2022-09-11T00:06:03;14.00;99.90
50816;DHT22;39717;47.324;8.788;2022-09-11T00:08:30;14.00;99.90
50816;DHT22;39717;47.324;8.788;2022-09-11T00:11:11;14.00;99.90
50816;DHT22;39717;47.324;8.788;2022-09-11T00:13:38;14.00;99.90
50816;DHT22;39717;47.324;8.788;2022-09-11T00:16:06;14.00;99.90
50816;DHT22;39717;47.324;8.788;2022-09-11T00:18:33;14.00;99.90
50816;DHT22;39717;47.324;8.788;2022-09-11T00:21:03;14.00;99.90
50816;DHT22;39717;47.324;8.788;2022-09-11T00:23:32;14.00;99.90
50816;DHT22;39717;47.324;8.788;2022-09-11T00:26:01;14.00;99.90
50816;DHT22;39717;47.324;8.788;2022-09-11T00:28:29;14.00;99.90
50816;DHT22;39717;47.324;8.788;2022-09-11T00:31:00;14.00;99.90
50816;DHT22;39717;47.324;8.788;2022-09-11T00:33:28;13.90;99.90
50816;DHT22;39717;47.324;8.788;2022-09-11T00:35:56;13.90;99.90
50816;DHT22;39717;47.324;8.788;2022-09-11T00:38:28;13.80;99.90
50816;DHT22;39717;47.324;8.788;2022-09-11T00:40:56;13.80;99.90
50816;DHT22;39717;47.324;8.788;2022-09-11T00:43:24;13.80;99.90
50816;DHT22;39717;47.324;8.788;2022-09-11T00:46:01;13.80;99.90
50816;DHT22;39717;47.324;8.788;2022-09-11T00:48:31;13.80;99.90
50816;DHT22;39717;47.324;8.788;2022-09-11T00:51:01;13.80;99.90
50816;DHT22;39717;47.324;8.788;2022-09-11T00:53:31;13.80;99.90
50816;DHT22;39717;47.324;8.788;2022-09-11T00:56:00;13.80;99.90
50816;DHT22;39717;47.324;8.788;2022-09-11T00:58:31;13.80;99.90
50816;DHT22;39717;47.324;8.788;2022-09-11T01:00:58;13.80;99.90
50816;DHT22;39717;47.324;8.788;2022-09-11T01:03:25;13.80;99.90
50816;DHT22;39717;47.324;8.788;2022-09-11T01:05:52;13.70;99.90
50816;DHT22;39717;47.324;8.788;2022-09-11T01:08:20;13.70;99.90
50816;DHT22;39717;47.324;8.788;2022-09-11T01:11:15;13.70;99.90
50816;DHT22;39717;47.324;8.788;2022-09-11T01:14:08;13.70;99.90
50816;DHT22;39717;47.324;8.788;2022-09-11T01:16:39;13.70;99.90
50816;DHT22;39717;47.324;8.788;2022-09-11T01:27:58;13.80;99.90
50816;DHT22;39717;47.324;8.788;2022-09-11T01:30:35;13.80;99.90
50816;DHT22;39717;47.324;8.788;2022-09-11T01:33:20;13.80;99.90
50816;DHT22;39717;47.324;8.788;2022-09-11T01:36:04;13.80;99.90
50816;DHT22;39717;47.324;8.788;2022-09-11T01:38:53;13.80;99.90
50816;DHT22;39717;47.324;8.788;2022-09-11T01:41:41;13.80;99.90
50816;DHT22;39717;47.324;8.788;2022-09-11T01:44:11;13.80;99.90
50816;DHT22;39717;47.324;8.788;2022-09-11T01:46:46;13.80;99.90
50816;DHT22;39717;47.324;8.788;2022-09-11T01:51:50;13.70;99.90
50816;DHT22;39717;47.324;8.788;2022-09-11T01:54:20;13.70;99.90
50816;DHT22;39717;47.324;8.788;2022-09-11T01:56:56;13.70;99.90
50816;DHT22;39717;47.324;8.788;2022-09-11T01:59:37;13.70;99.90
50816;DHT22;39717;47.324;8.788;2022-09-11T02:02:09;13.70;99.90
50816;DHT22;39717;47.324;8.788;2022-09-11T02:04:51;13.70;99.90
50816;DHT22;39717;47.324;8.788;2022-09-11T02:08:12;13.70;99.90
50816;DHT22;39717;47.324;8.788;2022-09-11T02:10:17;13.70;99.90
50816;DHT22;39717;47.324;8.788;2022-09-11T02:15:43;13.80;99.90
50816;DHT22;39717;47.324;8.788;2022-09-11T02:18:28;13.70;99.90
50816;DHT22;39717;47.324;8.788;2022-09-11T02:21:00;13.70;99.90
50816;DHT22;39717;47.324;8.788;2022-09-11T02:23:26;13.60;99.90
50816;DHT22;39717;47.324;8.788;2022-09-11T02:25:52;13.70;99.90
50816;DHT22;39717;47.324;8.788;2022-09-11T02:28:17;13.70;99.90
50816;DHT22;39717;47.324;8.788;2022-09-11T02:30:44;13.70;99.90
50816;DHT22;39717;47.324;8.788;2022-09-11T02:33:31;13.70;99.90
50816;DHT22;39717;47.324;8.788;2022-09-11T02:36:19;13.70;99.90
50816;DHT22;39717;47.324;8.788;2022-09-11T02:50:39;13.80;99.90
50816;DHT22;39717;47.324;8.788;2022-09-11T02:53:12;13.80;99.90
50816;DHT22;39717;47.324;8.788;2022-09-11T02:56:08;13.80;99.90
50816;DHT22;39717;47.324;8.788;2022-09-11T03:01:09;13.90;99.90
50816;DHT22;39717;47.324;8.788;2022-09-11T03:03:54;13.90;99.90
50816;DHT22;39717;47.324;8.788;2022-09-11T03:06:22;13.90;99.90
50816;DHT22;39717;47.324;8.788;2022-09-11T03:08:49;13.90;99.90
50816;DHT22;39717;47.324;8.788;2022-09-11T03:11:16;13.90;99.90
50816;DHT22;39717;47.324;8.788;2022-09-11T03:13:44;14.00;99.90
50816;DHT22;39717;47.324;8.788;2022-09-11T03:18:37;14.00;99.90
50816;DHT22;39717;47.324;8.788;2022-09-11T03:21:04;14.10;99.90
50816;DHT22;39717;47.324;8.788;2022-09-11T03:23:30;14.10;99.90
50816;DHT22;39717;47.324;8.788;2022-09-11T03:25:56;14.00;99.90
50816;DHT22;39717;47.324;8.788;2022-09-11T03:28:23;14.00;99.90
50816;DHT22;39717;47.324;8.788;2022-09-11T03:30:50;14.00;99.90
50816;DHT22;39717;47.324;8.788;2022-09-11T03:33:17;14.00;99.90
50816;DHT22;39717;47.324;8.788;2022-09-11T03:35:43;14.00;99.90
50816;DHT22;39717;47.324;8.788;2022-09-11T03:38:09;14.00;99.90
50816;DHT22;39717;47.324;8.788;2022-09-11T03:40:37;13.90;99.90
50816;DHT22;39717;47.324;8.788;2022-09-11T03:43:03;13.90;99.90
50816;DHT22;39717;47.324;8.788;2022-09-11T03:45:29;13.90;99.90
50816;DHT22;39717;47.324;8.788;2022-09-11T03:47:55;13.90;99.90
50816;DHT22;39717;47.324;8.788;2022-09-11T03:50:22;13.90;99.90
50816;DHT22;39717;47.324;8.788;2022-09-11T03:52:48;13.90;99.90
50816;DHT22;39717;47.324;8.788;2022-09-11T03:55:14;13.90;99.90
50816;DHT22;39717;47.324;8.788;2022-09-11T03:57:41;13.90;99.90
50816;DHT22;39717;47.324;8.788;2022-09-11T04:00:07;13.90;99.90
50816;DHT22;39717;47.324;8.788;2022-09-11T04:02:34;13.90;99.90
50816;DHT22;39717;47.324;8.788;2022-09-11T04:05:00;13.90;99.90
50816;DHT22;39717;47.324;8.788;2022-09-11T04:07:28;13.80;99.90
50816;DHT22;39717;47.324;8.788;2022-09-11T04:09:57;13.80;99.90
50816;DHT22;39717;47.324;8.788;2022-09-11T04:14:50;13.40;99.90
50816;DHT22;39717;47.324;8.788;2022-09-11T04:17:16;13.40;99.90
50816;DHT22;39717;47.324;8.788;2022-09-11T04:19:42;13.40;99.90
50816;DHT22;39717;47.324;8.788;2022-09-11T04:22:08;13.30;99.90
50816;DHT22;39717;47.324;8.788;2022-09-11T04:24:34;13.30;99.90
50816;DHT22;39717;47.324;8.788;2022-09-11T04:26:59;13.20;99.90
50816;DHT22;39717;47.324;8.788;2022-09-11T04:29:27;13.30;99.90
50816;DHT22;39717;47.324;8.788;2022-09-11T04:31:53;13.30;99.90
50816;DHT22;39717;47.324;8.788;2022-09-11T04:34:19;13.30;99.90
50816;DHT22;39717;47.324;8.788;2022-09-11T04:36:45;13.30;99.90
50816;DHT22;39717;47.324;8.788;2022-09-11T04:39:11;13.30;99.90
50816;DHT22;39717;47.324;8.788;2022-09-11T04:41:37;13.30;99.90
50816;DHT22;39717;47.324;8.788;2022-09-11T04:44:02;13.30;99.90
50816;DHT22;39717;47.324;8.788;2022-09-11T04:46:29;13.30;99.90
50816;DHT22;39717;47.324;8.788;2022-09-11T04:48:56;13.30;99.90
50816;DHT22;39717;47.324;8.788;2022-09-11T04:51:28;13.40;99.90
50816;DHT22;39717;47.324;8.788;2022-09-11T04:53:56;13.30;99.90
50816;DHT22;39717;47.324;8.788;2022-09-11T04:56:24;13.30;99.90
50816;DHT22;39717;47.324;8.788;2022-09-11T04:58:54;13.30;99.90
50816;DHT22;39717;47.324;8.788;2022-09-11T05:01:22;13.40;99.90
50816;DHT22;39717;47.324;8.788;2022-09-11T05:03:48;13.40;99.90
50816;DHT22;39717;47.324;8.788;2022-09-11T05:06:13;13.40;99.90
50816;DHT22;39717;47.324;8.788;2022-09-11T05:08:44;13.40;99.90
50816;DHT22;39717;47.324;8.788;2022-09-11T05:11:11;13.40;99.90
50816;DHT22;39717;47.324;8.788;2022-09-11T05:13:38;13.40;99.90
50816;DHT22;39717;47.324;8.788;2022-09-11T05:16:05;13.40;99.90
50816;DHT22;39717;47.324;8.788;2022-09-11T05:18:33;13.40;99.90
50816;DHT22;39717;47.324;8.788;2022-09-11T05:21:10;13.50;99.90
50816;DHT22;39717;47.324;8.788;2022-09-11T05:23:38;13.50;99.90
50816;DHT22;39717;47.324;8.788;2022-09-11T05:26:05;13.50;99.90
50816;DHT22;39717;47.324;8.788;2022-09-11T05:28:32;13.40;99.90
50816;DHT22;39717;47.324;8.788;2022-09-11T05:30:58;13.40;99.90
50816;DHT22;39717;47.324;8.788;2022-09-11T05:33:26;13.40;99.90
50816;DHT22;39717;47.324;8.788;2022-09-11T05:35:53;13.40;99.90
50816;DHT22;39717;47.324;8.788;2022-09-11T05:38:21;13.40;99.90
50816;DHT22;39717;47.324;8.788;2022-09-11T05:40:49;13.40;99.90
50816;DHT22;39717;47.324;8.788;2022-09-11T05:43:16;13.40;99.90
50816;DHT22;39717;47.324;8.788;2022-09-11T05:45:52;13.40;99.90
50816;DHT22;39717;47.324;8.788;2022-09-11T05:48:18;13.50;99.90
50816;DHT22;39717;47.324;8.788;2022-09-11T05:50:54;13.40;99.90
50816;DHT22;39717;47.324;8.788;2022-09-11T05:53:22;13.50;99.90
50816;DHT22;39717;47.324;8.788;2022-09-11T05:55:48;13.50;99.90
50816;DHT22;39717;47.324;8.788;2022-09-11T05:58:17;13.50;99.90
50816;DHT22;39717;47.324;8.788;2022-09-11T06:00:44;13.60;99.90
50816;DHT22;39717;47.324;8.788;2022-09-11T06:03:14;13.60;99.90
50816;DHT22;39717;47.324;8.788;2022-09-11T06:05:41;13.60;99.90
50816;DHT22;39717;47.324;8.788;2022-09-11T06:08:08;13.70;99.90
50816;DHT22;39717;47.324;8.788;2022-09-11T06:10:35;13.70;99.90
50816;DHT22;39717;47.324;8.788;2022-09-11T06:13:01;13.70;99.90
50816;DHT22;39717;47.324;8.788;2022-09-11T06:15:28;13.70;99.90
50816;DHT22;39717;47.324;8.788;2022-09-11T06:17:54;13.80;99.90
50816;DHT22;39717;47.324;8.788;2022-09-11T06:20:20;13.80;99.90
50816;DHT22;39717;47.324;8.788;2022-09-11T06:22:46;13.80;99.90
50816;DHT22;39717;47.324;8.788;2022-09-11T06:25:12;13.80;99.90
50816;DHT22;39717;47.324;8.788;2022-09-11T06:27:38;13.90;99.90
50816;DHT22;39717;47.324;8.788;2022-09-11T06:30:05;13.90;99.90
50816;DHT22;39717;47.324;8.788;2022-09-11T06:32:31;13.90;99.90
50816;DHT22;39717;47.324;8.788;2022-09-11T06:34:57;13.90;99.90
50816;DHT22;39717;47.324;8.788;2022-09-11T06:37:23;13.90;99.90
50816;DHT22;39717;47.324;8.788;2022-09-11T06:39:49;14.00;99.90
50816;DHT22;39717;47.324;8.788;2022-09-11T06:42:16;14.00;99.90
50816;DHT22;39717;47.324;8.788;2022-09-11T06:44:43;14.10;99.90
50816;DHT22;39717;47.324;8.788;2022-09-11T06:47:09;14.10;99.90
50816;DHT22;39717;47.324;8.788;2022-09-11T06:49:35;14.10;99.90
50816;DHT22;39717;47.324;8.788;2022-09-11T06:52:00;14.10;99.90
50816;DHT22;39717;47.324;8.788;2022-09-11T06:54:26;14.20;99.90
50816;DHT22;39717;47.324;8.788;2022-09-11T06:56:52;14.20;99.90
50816;DHT22;39717;47.324;8.788;2022-09-11T06:59:18;14.20;99.90
50816;DHT22;39717;47.324;8.788;2022-09-11T07:01:43;14.20;99.90
50816;DHT22;39717;47.324;8.788;2022-09-11T07:04:09;14.30;99.90
50816;DHT22;39717;47.324;8.788;2022-09-11T07:06:35;14.40;99.90
50816;DHT22;39717;47.324;8.788;2022-09-11T07:09:04;14.40;99.90
50816;DHT22;39717;47.324;8.788;2022-09-11T07:11:32;14.50;99.90
50816;DHT22;39717;47.324;8.788;2022-09-11T07:13:59;14.60;99.90
50816;DHT22;39717;47.324;8.788;2022-09-11T07:16:27;14.70;99.90
50816;DHT22;39717;47.324;8.788;2022-09-11T07:18:53;14.70;99.90
50816;DHT22;39717;47.324;8.788;2022-09-11T07:21:21;14.80;99.90
50816;DHT22;39717;47.324;8.788;2022-09-11T07:23:52;14.80;99.90
50816;DHT22;39717;47.324;8.788;2022-09-11T07:26:26;14.90;99.90
50816;DHT22;39717;47.324;8.788;2022-09-11T07:28:52;14.90;99.90
50816;DHT22;39717;47.324;8.788;2022-09-11T07:31:24;14.90;99.90
50816;DHT22;39717;47.324;8.788;2022-09-11T07:33:51;14.90;99.90
50816;DHT22;39717;47.324;8.788;2022-09-11T07:36:23;15.00;99.90
50816;DHT22;39717;47.324;8.788;2022-09-11T07:38:52;15.10;99.90
50816;DHT22;39717;47.324;8.788;2022-09-11T07:41:21;15.10;99.90
50816;DHT22;39717;47.324;8.788;2022-09-11T07:43:52;15.20;99.90
50816;DHT22;39717;47.324;8.788;2022-09-11T07:46:19;15.20;99.90
50816;DHT22;39717;47.324;8.788;2022-09-11T07:48:46;15.30;99.90
50816;DHT22;39717;47.324;8.788;2022-09-11T07:51:14;15.40;99.90
50816;DHT22;39717;47.324;8.788;2022-09-11T07:53:47;15.40;99.90
50816;DHT22;39717;47.324;8.788;2022-09-11T07:56:15;15.40;99.90
50816;DHT22;39717;47.324;8.788;2022-09-11T07:58:44;15.40;99.90
50816;DHT22;39717;47.324;8.788;2022-09-11T08:01:16;15.50;99.90
50816;DHT22;39717;47.324;8.788;2022-09-11T08:03:42;15.60;99.90
50816;DHT22;39717;47.324;8.788;2022-09-11T08:06:16;15.50;99.90
50816;DHT22;39717;47.324;8.788;2022-09-11T08:08:43;15.50;99.90
50816;DHT22;39717;47.324;8.788;2022-09-11T08:11:13;15.60;99.90
50816;DHT22;39717;47.324;8.788;2022-09-11T08:13:42;15.70;99.90
50816;DHT22;39717;47.324;8.788;2022-09-11T08:16:08;15.80;99.90
50816;DHT22;39717;47.324;8.788;2022-09-11T08:18:34;15.70;99.90
50816;DHT22;39717;47.324;8.788;2022-09-11T08:21:08;15.70;99.90
50816;DHT22;39717;47.324;8.788;2022-09-11T08:23:35;15.70;99.90
50816;DHT22;39717;47.324;8.788;2022-09-11T08:26:29;15.70;99.90
50816;DHT22;39717;47.324;8.788;2022-09-11T08:28:58;15.70;99.90
50816;DHT22;39717;47.324;8.788;2022-09-11T08:31:25;15.70;99.90
50816;DHT22;39717;47.324;8.788;2022-09-11T08:33:53;15.70;99.90
50816;DHT22;39717;47.324;8.788;2022-09-11T08:36:19;15.80;99.90
50816;DHT22;39717;47.324;8.788;2022-09-11T08:38:46;15.80;99.90
50816;DHT22;39717;47.324;8.788;2022-09-11T08:43:56;16.00;99.90
50816;DHT22;39717;47.324;8.788;2022-09-11T08:46:26;16.10;98.40
50816;DHT22;39717;47.324;8.788;2022-09-11T08:49:02;16.20;97.60
50816;DHT22;39717;47.324;8.788;2022-09-11T08:51:29;16.30;91.90
50816;DHT22;39717;47.324;8.788;2022-09-11T08:53:58;16.60;91.90
50816;DHT22;39717;47.324;8.788;2022-09-11T08:56:27;16.60;90.60
50816;DHT22;39717;47.324;8.788;2022-09-11T09:01:58;16.80;89.80
50816;DHT22;39717;47.324;8.788;2022-09-11T09:07:22;16.80;89.90
50816;DHT22;39717;47.324;8.788;2022-09-11T09:10:11;16.80;89.90
50816;DHT22;39717;47.324;8.788;2022-09-11T09:12:51;16.90;86.80
50816;DHT22;39717;47.324;8.788;2022-09-11T09:15:40;16.90;87.90
50816;DHT22;39717;47.324;8.788;2022-09-11T09:18:35;17.00;83.90
50816;DHT22;39717;47.324;8.788;2022-09-11T09:21:12;17.10;85.40
50816;DHT22;39717;47.324;8.788;2022-09-11T14:34:53;20.60;30.40
50816;DHT22;39717;47.324;8.788;2022-09-11T17:57:53;20.20;38.80
50816;DHT22;39717;47.324;8.788;2022-09-11T18:00:20;18.50;55.40
50816;DHT22;39717;47.324;8.788;2022-09-11T18:02:45;18.50;64.60
50816;DHT22;39717;47.324;8.788;2022-09-11T18:05:15;18.40;58.80
50816;DHT22;39717;47.324;8.788;2022-09-11T18:07:42;18.30;61.00
50816;DHT22;39717;47.324;8.788;2022-09-11T18:10:09;18.20;61.10
50816;DHT22;39717;47.324;8.788;2022-09-11T18:12:34;18.20;62.60
50816;DHT22;39717;47.324;8.788;2022-09-11T18:15:01;18.20;61.20
50816;DHT22;39717;47.324;8.788;2022-09-11T18:17:28;18.20;61.10
50816;DHT22;39717;47.324;8.788;2022-09-11T18:19:54;18.00;62.70
50816;DHT22;39717;47.324;8.788;2022-09-11T18:22:20;18.10;63.40
50816;DHT22;39717;47.324;8.788;2022-09-11T18:24:47;18.00;64.70
50816;DHT22;39717;47.324;8.788;2022-09-11T18:27:15;17.90;65.00
50816;DHT22;39717;47.324;8.788;2022-09-11T18:29:42;17.90;67.20
50816;DHT22;39717;47.324;8.788;2022-09-11T18:32:09;17.80;66.70
50816;DHT22;39717;47.324;8.788;2022-09-11T18:34:35;17.80;66.30
50816;DHT22;39717;47.324;8.788;2022-09-11T18:37:01;17.70;66.90
50816;DHT22;39717;47.324;8.788;2022-09-11T18:39:27;17.70;66.80
50816;DHT22;39717;47.324;8.788;2022-09-11T18:41:53;17.70;66.30
50816;DHT22;39717;47.324;8.788;2022-09-11T18:44:21;17.60;66.20
50816;DHT22;39717;47.324;8.788;2022-09-11T18:46:52;17.60;65.90
50816;DHT22;39717;47.324;8.788;2022-09-11T18:49:18;17.60;65.60
50816;DHT22;39717;47.324;8.788;2022-09-11T18:51:44;17.60;65.20
50816;DHT22;39717;47.324;8.788;2022-09-11T18:54:12;17.60;65.20
50816;DHT22;39717;47.324;8.788;2022-09-11T18:56:39;17.50;66.20
50816;DHT22;39717;47.324;8.788;2022-09-11T18:59:08;17.50;64.60
50816;DHT22;39717;47.324;8.788;2022-09-11T19:01:33;17.40;63.70
50816;DHT22;39717;47.324;8.788;2022-09-11T19:04:08;17.40;60.80
50816;DHT22;39717;47.324;8.788;2022-09-11T19:06:34;17.40;60.10
50816;DHT22;39717;47.324;8.788;2022-09-11T19:09:04;17.40;59.50
50816;DHT22;39717;47.324;8.788;2022-09-11T19:11:31;17.40;57.00
50816;DHT22;39717;47.324;8.788;2022-09-11T19:14:04;17.40;56.00
50816;DHT22;39717;47.324;8.788;2022-09-11T19:16:30;17.30;54.40
50816;DHT22;39717;47.324;8.788;2022-09-11T19:18:58;17.30;54.20
50816;DHT22;39717;47.324;8.788;2022-09-11T19:21:25;17.40;52.90
50816;DHT22;39717;47.324;8.788;2022-09-11T19:23:54;17.30;51.30
50816;DHT22;39717;47.324;8.788;2022-09-11T19:26:32;17.30;50.70
50816;DHT22;39717;47.324;8.788;2022-09-11T19:28:58;17.30;50.40
50816;DHT22;39717;47.324;8.788;2022-09-11T19:34:01;17.20;47.90
50816;DHT22;39717;47.324;8.788;2022-09-11T19:36:30;17.30;48.70
50816;DHT22;39717;47.324;8.788;2022-09-11T19:38:57;17.20;47.40
50816;DHT22;39717;47.324;8.788;2022-09-11T19:41:28;17.20;49.00
50816;DHT22;39717;47.324;8.788;2022-09-11T19:43:57;17.10;48.10
50816;DHT22;39717;47.324;8.788;2022-09-11T19:46:25;17.00;50.30
50816;DHT22;39717;47.324;8.788;2022-09-11T19:48:55;16.80;50.90
50816;DHT22;39717;47.324;8.788;2022-09-11T19:51:26;16.60;53.40
50816;DHT22;39717;47.324;8.788;2022-09-11T19:53:56;16.50;53.90
50816;DHT22;39717;47.324;8.788;2022-09-11T19:56:24;16.50;54.50
50816;DHT22;39717;47.324;8.788;2022-09-11T19:58:51;16.40;56.20
50816;DHT22;39717;47.324;8.788;2022-09-11T20:01:20;16.30;57.00
50816;DHT22;39717;47.324;8.788;2022-09-11T20:03:48;16.30;58.50
50816;DHT22;39717;47.324;8.788;2022-09-11T20:06:16;16.20;60.40
50816;DHT22;39717;47.324;8.788;2022-09-11T20:08:45;16.10;61.90
50816;DHT22;39717;47.324;8.788;2022-09-11T20:11:20;16.00;62.50
50816;DHT22;39717;47.324;8.788;2022-09-11T20:13:46;16.00;64.30
50816;DHT22;39717;47.324;8.788;2022-09-11T20:16:18;15.90;67.00
50816;DHT22;39717;47.324;8.788;2022-09-11T20:18:51;15.90;65.50
50816;DHT22;39717;47.324;8.788;2022-09-11T20:21:18;15.80;66.00
50816;DHT22;39717;47.324;8.788;2022-09-11T20:23:46;15.80;67.60
50816;DHT22;39717;47.324;8.788;2022-09-11T20:28:44;15.60;75.70
50816;DHT22;39717;47.324;8.788;2022-09-11T20:31:15;15.50;78.50
50816;DHT22;39717;47.324;8.788;2022-09-11T20:33:43;15.50;80.60
50816;DHT22;39717;47.324;8.788;2022-09-11T20:36:11;15.40;82.10
50816;DHT22;39717;47.324;8.788;2022-09-11T20:38:38;15.30;86.90
50816;DHT22;39717;47.324;8.788;2022-09-11T20:41:10;15.20;91.90
50816;DHT22;39717;47.324;8.788;2022-09-11T20:43:36;15.10;91.00
50816;DHT22;39717;47.324;8.788;2022-09-11T20:46:03;15.00;93.90
50816;DHT22;39717;47.324;8.788;2022-09-11T20:48:30;14.90;93.30
50816;DHT22;39717;47.324;8.788;2022-09-11T20:51:22;14.90;92.70
50816;DHT22;39717;47.324;8.788;2022-09-11T20:53:48;14.80;93.90
50816;DHT22;39717;47.324;8.788;2022-09-11T20:56:18;14.80;95.00
50816;DHT22;39717;47.324;8.788;2022-09-11T20:58:45;14.70;96.30
50816;DHT22;39717;47.324;8.788;2022-09-11T21:01:13;14.60;97.60
50816;DHT22;39717;47.324;8.788;2022-09-11T21:03:54;14.70;98.20
50816;DHT22;39717;47.324;8.788;2022-09-11T21:06:23;14.70;98.40
50816;DHT22;39717;47.324;8.788;2022-09-11T21:08:55;14.60;99.90
50816;DHT22;39717;47.324;8.788;2022-09-11T21:11:26;14.60;99.90
50816;DHT22;39717;47.324;8.788;2022-09-11T21:13:53;14.50;99.90
50816;DHT22;39717;47.324;8.788;2022-09-11T21:16:20;14.40;99.90
50816;DHT22;39717;47.324;8.788;2022-09-11T21:18:50;14.30;99.90
50816;DHT22;39717;47.324;8.788;2022-09-11T21:21:19;14.20;99.90
50816;DHT22;39717;47.324;8.788;2022-09-11T21:23:46;14.20;99.90
50816;DHT22;39717;47.324;8.788;2022-09-11T21:26:14;14.10;99.90
50816;DHT22;39717;47.324;8.788;2022-09-11T21:28:40;14.00;99.90
50816;DHT22;39717;47.324;8.788;2022-09-11T21:31:08;14.00;99.90
50816;DHT22;39717;47.324;8.788;2022-09-11T21:33:35;14.00;99.90
50816;DHT22;39717;47.324;8.788;2022-09-11T21:36:03;14.10;99.90
50816;DHT22;39717;47.324;8.788;2022-09-11T21:38:29;14.10;99.90
50816;DHT22;39717;47.324;8.788;2022-09-11T21:40:57;14.10;99.90
50816;DHT22;39717;47.324;8.788;2022-09-11T21:43:24;14.10;99.90
50816;DHT22;39717;47.324;8.788;2022-09-11T21:45:50;14.10;99.90
50816;DHT22;39717;47.324;8.788;2022-09-11T21:48:16;14.00;99.90
50816;DHT22;39717;47.324;8.788;2022-09-11T21:50:42;14.00;99.90
50816;DHT22;39717;47.324;8.788;2022-09-11T21:53:09;14.00;99.90
50816;DHT22;39717;47.324;8.788;2022-09-11T21:58:06;13.90;99.90
50816;DHT22;39717;47.324;8.788;2022-09-11T22:03:03;13.70;99.90
50816;DHT22;39717;47.324;8.788;2022-09-11T22:05:29;13.70;99.90
50816;DHT22;39717;47.324;8.788;2022-09-11T22:07:55;13.60;99.90
50816;DHT22;39717;47.324;8.788;2022-09-11T22:10:24;13.60;99.90
50816;DHT22;39717;47.324;8.788;2022-09-11T22:15:17;13.60;99.90
50816;DHT22;39717;47.324;8.788;2022-09-11T22:20:09;13.50;99.90
50816;DHT22;39717;47.324;8.788;2022-09-11T22:22:37;13.40;99.90
50816;DHT22;39717;47.324;8.788;2022-09-11T22:25:07;13.30;99.90
50816;DHT22;39717;47.324;8.788;2022-09-11T22:27:34;13.20;99.90
50816;DHT22;39717;47.324;8.788;2022-09-11T22:30:00;13.20;99.90
50816;DHT22;39717;47.324;8.788;2022-09-11T22:32:29;13.20;99.90
50816;DHT22;39717;47.324;8.788;2022-09-11T22:34:55;13.20;99.90
50816;DHT22;39717;47.324;8.788;2022-09-11T22:37:20;13.20;99.90
50816;DHT22;39717;47.324;8.788;2022-09-11T22:39:46;13.10;99.90
50816;DHT22;39717;47.324;8.788;2022-09-11T22:42:13;13.20;99.90
50816;DHT22;39717;47.324;8.788;2022-09-11T22:44:39;13.20;99.90
50816;DHT22;39717;47.324;8.788;2022-09-11T22:47:05;13.20;99.90
50816;DHT22;39717;47.324;8.788;2022-09-11T22:49:33;13.10;99.90
50816;DHT22;39717;47.324;8.788;2022-09-11T22:51:58;12.90;99.90
50816;DHT22;39717;47.324;8.788;2022-09-11T22:54:24;12.90;99.90
50816;DHT22;39717;47.324;8.788;2022-09-11T22:56:50;12.90;99.90
50816;DHT22;39717;47.324;8.788;2022-09-11T22:59:15;13.00;99.90
50816;DHT22;39717;47.324;8.788;2022-09-11T23:01:42;12.90;99.90
50816;DHT22;39717;47.324;8.788;2022-09-11T23:04:09;12.90;99.90
50816;DHT22;39717;47.324;8.788;2022-09-11T23:06:35;12.80;99.90
50816;DHT22;39717;47.324;8.788;2022-09-11T23:09:19;12.80;99.90
50816;DHT22;39717;47.324;8.788;2022-09-11T23:11:46;12.70;99.90
50816;DHT22;39717;47.324;8.788;2022-09-11T23:14:12;12.70;99.90
50816;DHT22;39717;47.324;8.788;2022-09-11T23:16:40;12.70;99.90
50816;DHT22;39717;47.324;8.788;2022-09-11T23:19:06;12.80;99.90
50816;DHT22;39717;47.324;8.788;2022-09-11T23:21:34;12.80;99.90
50816;DHT22;39717;47.324;8.788;2022-09-11T23:24:02;12.80;99.90
50816;DHT22;39717;47.324;8.788;2022-09-11T23:26:31;12.80;99.90
50816;DHT22;39717;47.324;8.788;2022-09-11T23:28:58;12.80;99.90
50816;DHT22;39717;47.324;8.788;2022-09-11T23:31:30;12.80;99.90
50816;DHT22;39717;47.324;8.788;2022-09-11T23:33:59;12.80;99.90
50816;DHT22;39717;47.324;8.788;2022-09-11T23:36:26;12.70;99.90
50816;DHT22;39717;47.324;8.788;2022-09-11T23:38:54;12.60;99.90
50816;DHT22;39717;47.324;8.788;2022-09-11T23:41:20;12.60;99.90
50816;DHT22;39717;47.324;8.788;2022-09-11T23:43:48;12.60;99.90
50816;DHT22;39717;47.324;8.788;2022-09-11T23:46:15;12.50;99.90
50816;DHT22;39717;47.324;8.788;2022-09-11T23:48:41;12.40;99.90
50816;DHT22;39717;47.324;8.788;2022-09-11T23:51:07;12.40;99.90
50816;DHT22;39717;47.324;8.788;2022-09-11T23:53:39;12.50;99.90
50816;DHT22;39717;47.324;8.788;2022-09-11T23:56:08;12.50;99.90
50816;DHT22;39717;47.324;8.788;2022-09-11T23:58:36;12.40;99.90
